Terminal Aerodrome Forecast
Issued by NWS

Home | Current Version | Previous Version | Graphics & Text | Print | Product List | Glossary On
Versions: 1 2 3 4 5 6 7 8 9 10 11 12 13 14 15 16
000
FTUS43 KGRB 251201 AAA
TAFAUW
TAF AMD
KAUW 251201Z 2512/2612 10007KT 4SM BR BKN004
      TEMPO 2512/2514 2SM BR
     FM251500 11010G17KT P6SM SCT025 BKN200
     FM252100 12009KT 6SM -SHRA BKN025 OVC080
      TEMPO 2522/2602 2SM +TSRA BKN008 OVC015CB
     FM260400 15007KT 2SM BR BKN005 BKN010=

USA.gov is the U.S. government's official web portal to all federal, state and local government web resources and services.